Create Custom Reports and Graphics: Custom Report

JV-PS

Current Conditions

3/1/24 3:30 AM (-08:00)
Updated Every 15 Minutes
Temp 41.6 °F   0.2
Daily Min Temp 39.4 °F   0.9
Time of Min Temp 0248
Daily Max Temp 44.0 °F   2.6
Time of Max Temp 0044
Wind Dir SSW | 204 °
Wind Spd 3.0 mph   0.7
Wind Gust 4.6 mph   0.4
Daily Max Wind 5.9 mph   0.0
Time of Max Wind 0240
Max Wind Dir SSW | 192 °
RH 74 %   7
Dew Pt 33.9 °F   2.2
Barometric Press 30.07 inHg   0.01
Soil Temp 56.4 °F   0.6
Solar Rad 0 W/m2   0
Daily ETo 0.000 in   0.000
Daily Rain 0.00 In
Yest MinT 37.3 °F
Yest MaxT 68.0 °F
Yest MaxGst 22.4 mph
Yest ETo 0.14 In
Yest Precip 0.00 In
Month Precip 0.00 In
Season Precip 7.12 In
BatVolt 12.9 V   0.0
MinBV Day 12.9 V   0.0

Last 365 Observations

JV-PS

Daily Data | America/Los_Angeles
as of 3/1/24 3:30 AM PST
Date Daily Max Temp (°F) Time of Max Temp Daily Min Temp (°F) Time of Min Temp Daily Rain (In) Month Precip (In) Season Precip (In) Daily ETo (in) 7 Day ETo (in) Daily Solar Rad (Cal/cm2) Daily Max Wind (mph) Time of Max Wind Max Wind Dir (°) Wind Run (Miles) Dew Pt (°F) Max RH (%) Min RH (%) Max Press (inHg) Time of Max Press Min Press (inHg) Time of Min Press Soil Temp (°F) Storm Total (In) Daily Max Rain Intensity (In/Hr) Time of Max Rain Intensity Max 1 Min Rain (In) Max 1 Min Rain Time Max 15 Min Rain (In) Max 15 Min Precip Time Max 60 Min Rain (In) Max 60 Min Rain Time Heat Index Max (°F) Heat Index Max Time Min Wind Chill (°F) Wind Chill Time MinBV Day (V)
2/29/24 68.0 1410 37.3 0552 0.00 2.32 7.12 0.141 0.80 486 22.4 1450 NNW | 328 89.7 32.6 78 22 30.12 0614 29.89 1437 55.2 - - - - - - - - - - - 33.9 0623 12.8
2/28/24 66.2 1516 35.5 0551 0.00 2.32 7.12 0.129 0.77 483 18.4 1219 NE | 45 69.9 30.4 81 20 30.13 0632 29.89 1555 54.7 - - - - - - - - - - - 32.6 0551 12.8
2/27/24 64.2 1610 44.6 2359 0.00 2.32 7.12 0.140 0.74 473 23.9 0837 WNW | 299 155.6 37.8 81 35 30.05 2358 29.79 0335 53.9 - - - - - - - - - - - 41.1 0627 12.9
2/26/24 63.7 1614 42.3 0329 0.00 2.32 7.12 0.080 0.62 195 28.7 2035 WSW | 254 97.0 36.4 76 29 30.04 0319 29.75 1557 53.5 - - - - - - - - - - - 39.3 0439 12.9
2/25/24 65.7 1501 40.4 0536 0.00 2.32 7.12 0.101 0.64 328 14.5 1516 W | 274 71.8 36.1 84 29 30.12 0006 29.90 1501 53.2 - - - - - - - - - - - 37.7 0534 12.8
2/24/24 65.1 1504 40.8 0428 0.00 2.32 7.12 0.113 0.65 344 21.0 1528 E | 79 90.5 34.3 86 26 30.16 0616 29.92 1506 52.7 - - - - - - - - - - - 37.7 0429 12.8
2/23/24 62.2 1402 38.7 0522 0.00 2.32 7.12 0.103 0.66 354 13.4 1327 E | 88 69.3 34.7 86 30 30.26 0015 30.02 1440 52.6 - - - - - - - - - - - 35.9 0334 12.8
2/22/24 61.1 1636 34.3 0531 0.00 2.32 7.12 0.106 0.65 460 10.1 1321 NNE | 22 53.2 32.9 91 27 30.28 0654 30.08 1636 52.3 - - - - - - - - - - - 30.1 0536 12.8
2/21/24 59.1 1526 42.9 2326 0.06 2.32 7.12 0.095 0.67 371 21.7 1251 WNW | 298 126.2 41.8 96 48 30.20 2326 29.99 0427 52.8 0.80 0.10 0233 - 0309 0.03 0312 0.05 0313 - - 40.3 0747 12.8
2/20/24 52.6 0133 44.4 2237 0.74 2.26 7.06 0.023 0.68 83 10.7 1944 E | 101 61.8 45.6 95 65 30.15 1045 30.03 0140 54.0 0.74 0.36 1435 - 1818 0.08 1449 0.18 1526 - - 41.8 2236 12.9
2/19/24 65.5 1535 38.0 0557 0.00 1.53 6.32 0.103 0.76 353 19.5 1815 W | 268 75.6 39.5 89 41 30.09 2326 29.88 1536 53.4 - - - - - - - - - - - 34.4 0614 12.8
2/18/24 63.1 1632 39.6 0534 0.00 1.53 6.32 0.111 0.75 437 18.6 0010 WNW | 294 89.2 37.2 82 38 30.04 0534 29.86 1625 52.5 - - - - - - - - - - - 36.2 0447 12.8
2/17/24 69.0 1426 36.6 0605 0.00 1.53 6.32 0.115 0.73 388 20.4 1308 E | 82 82.9 34.5 84 28 30.16 0604 29.84 1426 51.5 - - - - - - - - - - - 33.3 0603 12.8
2/16/24 63.6 1658 32.9 0525 0.00 1.53 6.32 0.095 0.70 382 12.5 0113 W | 259 50.3 30.8 82 25 30.22 0613 29.97 1658 50.4 - - - - - - - - - - - 29.4 0524 12.8
2/15/24 63.3 1422 35.4 0334 0.00 1.53 6.32 0.131 0.67 404 26.3 1258 NW | 304 163.3 32.0 85 22 30.22 0608 29.94 1514 49.8 - - - - - - - - - - - 31.6 0608 12.8
2/14/24 61.8 1346 32.8 0430 0.00 1.53 6.32 0.108 0.62 420 15.6 1254 E | 91 73.1 29.6 80 28 30.16 0652 29.96 1317 48.6 - - - - - - - - - - - 28.2 0430 12.8
2/13/24 60.6 1609 28.8 0624 0.00 1.53 6.32 0.095 0.62 421 14.0 1420 NW | 312 55.3 25.5 81 22 30.15 0144 29.84 1609 47.4 - - - - - - - - - - - 23.7 0533 12.8
2/12/24 55.0 1452 27.8 0628 0.00 1.53 6.32 0.094 0.56 422 10.5 1218 NE | 54 60.2 22.8 79 23 30.31 0132 30.01 1625 46.7 - - - - - - - - - - - 23.5 0618 12.8
2/11/24 51.4 1443 28.9 0311 0.00 1.53 6.32 0.091 0.50 421 13.6 1057 NNW | 339 73.6 21.6 79 26 30.33 0707 30.13 1501 46.5 - - - - - - - - - - - 22.6 0226 12.8
2/10/24 49.3 1435 35.2 2359 0.01 1.53 6.32 0.085 0.50 338 22.4 1351 NNW | 329 154.1 25.5 88 32 30.25 2358 29.97 0111 47.2 - 0.06 0323 - 0329 0.01 0334 0.01 0419 - - 26.9 0545 12.8
2/9/24 48.0 1457 30.4 0222 0.00 1.52 6.31 0.064 0.50 286 24.1 2011 WNW | 288 92.7 30.8 90 46 30.13 0716 29.92 1705 47.5 - - - - - - - - - - - 25.6 0232 12.8
2/8/24 49.2 1456 32.0 0506 0.10 1.52 6.31 0.087 0.55 408 30.2 1142 NW | 315 185.2 29.4 95 43 30.08 2359 29.79 0012 48.8 0.12 1.09 0716 - 0717 0.02 0112 0.05 0154 - - 24.3 0129 12.8
2/7/24 54.1 1256 35.6 0448 0.02 1.42 6.21 0.105 0.50 396 27.8 1736 SW | 218 161.6 31.6 95 32 29.82 0653 29.71 0001 49.6 - 0.05 2351 - 2352 0.01 2354 0.02 0001 - - 30.1 0449 12.8
2/6/24 50.2 0720 39.7 2357 0.49 1.40 6.19 0.033 0.46 138 20.6 0818 W | 276 88.2 40.8 95 61 29.79 0003 29.58 1641 51.0 1.29 0.14 0002 - 0554 0.06 0004 0.19 0008 - - 36.0 0736 12.8
2/5/24 56.8 0121 44.9 2359 0.66 0.91 5.70 0.038 0.55 139 31.1 0040 SE | 131 108.5 44.4 96 48 29.89 0739 29.75 2101 51.3 0.80 0.27 2138 - 2357 0.08 2146 0.19 0001 - - 39.1 2238 12.9
2/4/24 56.1 2257 40.6 0652 0.14 0.25 5.05 0.089 0.62 406 46.2 1204 SE | 132 300.0 40.2 93 46 30.02 0709 29.79 2002 50.6 0.14 7.09 1130 0.02 1409 0.03 1421 0.06 1412 - - 36.2 0452 12.8
2/3/24 57.1 1419 33.5 0400 0.00 0.11 4.91 0.092 0.62 371 16.0 1455 NW | 326 85.9 30.0 89 19 30.03 0704 29.84 1358 49.4 - - - - - - - - - - - 28.4 0552 12.8
2/2/24 54.9 1518 36.8 0001 0.00 0.11 4.91 0.109 0.61 382 32.7 1119 WNW | 283 208.2 31.3 96 32 29.96 2257 29.71 0137 50.1 - - 0001 - - - - - 0023 - - 31.7 0001 12.8
2/1/24 55.4 0941 36.8 2359 0.11 0.11 4.91 0.038 0.59 123 18.6 1510 E | 90 95.7 38.6 96 46 29.82 0002 29.64 0900 52.2 0.11 0.11 1405 - 1348 0.02 1410 0.05 1421 - - 31.3 2358 12.9
1/31/24 63.3 1511 39.0 0339 0.00 0.89 4.80 0.063 0.66 215 12.9 2335 N | 349 61.0 34.6 77 32 30.10 0138 29.79 1536 52.4 - - - - - - - - - - - 36.2 0143 12.8
1/30/24 69.5 1413 36.4 0654 0.00 0.89 4.80 0.118 0.64 362 20.6 1329 E | 86 101.1 31.2 77 24 30.22 0654 29.92 1359 52.2 - - - - - - - - - - - 33.6 0619 12.8
1/29/24 67.2 1346 39.5 0708 0.00 0.89 4.80 0.117 0.60 370 17.3 1336 E | 92 94.8 33.0 80 25 30.30 0707 30.01 1500 51.7 - - - - - - - - - - - 38.8 0224 12.8
1/28/24 65.3 1408 38.8 0552 0.00 0.89 4.80 0.084 0.51 331 8.8 1325 ENE | 61 49.5 33.8 78 28 30.33 0042 30.12 1407 50.7 - - - - - - - - - - - 36.9 0552 12.8
1/27/24 64.0 1554 35.0 0643 0.00 0.89 4.80 0.082 0.48 349 9.9 1357 NNE | 13 52.9 29.1 74 19 30.46 0644 30.18 1554 49.6 - - - - - - - - - - - 32.2 0404 12.8
1/26/24 59.6 1432 34.6 0715 0.00 0.89 4.80 0.085 0.43 333 19.1 1417 W | 279 74.0 29.8 83 20 30.43 2259 30.20 0136 49.6 - - - - - - - - - - - 33.3 0424 12.8
1/25/24 59.7 1148 42.0 2358 0.00 0.89 4.80 0.108 0.41 351 27.8 1101 WNW | 282 164.7 36.5 90 31 30.22 2359 29.96 1229 49.6 - - - - - - - - - - - 39.1 0221 12.8
1/24/24 56.6 1507 39.5 0511 0.00 0.89 4.80 0.048 0.39 176 14.9 0612 W | 260 66.4 38.5 86 46 30.12 0824 30.00 1624 49.6 - - - - - - - - - - - 34.4 0515 12.8
1/23/24 57.4 1533 43.4 0001 0.00 0.89 4.80 0.076 0.44 211 23.0 1028 WNW | 282 210.4 40.8 95 50 30.06 2304 29.79 0431 50.1 0.56 - 0636 - 0637 - 0651 - 0736 - - 39.2 2334 12.8
1/22/24 54.1 1316 41.2 0429 0.55 0.89 4.79 0.030 0.44 106 23.0 1631 W | 276 85.4 42.8 97 58 29.90 0206 29.65 1316 50.8 0.55 0.89 1630 0.02 1633 0.12 1711 0.35 1729 - - 38.1 0856 12.8
1/21/24 56.2 1414 42.8 0009 0.01 0.34 4.24 0.054 0.48 222 12.9 1359 SE | 128 54.3 43.2 95 59 29.93 2202 29.78 1359 51.0 0.17 - 0221 - 0711 - 0725 - 0810 - - 40.0 2037 12.8
1/20/24 56.0 1206 42.8 2336 0.16 0.33 4.23 0.033 0.59 110 11.4 0356 NNW | 346 50.7 39.8 94 47 29.96 0141 29.82 1207 51.3 0.16 0.16 1317 - 1418 0.03 1400 0.09 1419 - - 40.9 2308 12.8
1/19/24 59.7 1201 38.7 0625 0.00 0.17 4.07 0.062 0.66 192 18.0 1143 E | 80 72.1 33.4 77 38 30.15 0619 29.89 1656 51.1 - - - - - - - - - - - 35.3 0618 12.8
1/18/24 61.8 1401 32.7 0654 0.00 0.17 4.07 0.088 0.68 320 13.8 1529 E | 88 85.2 33.1 89 34 30.19 0654 29.99 1430 50.6 - - - - - - - - - - - 29.3 0655 12.8
1/17/24 68.4 1350 38.7 0339 0.00 0.17 4.07 0.102 0.69 254 29.4 1215 WNW | 292 146.2 36.5 81 41 30.07 2230 29.74 1413 50.2 - - - - - - - - - - - 35.8 0336 12.8
1/16/24 62.6 1425 32.2 0612 0.00 0.17 4.07 0.070 0.70 298 6.4 1747 S | 182 45.7 27.7 77 24 30.23 0713 29.96 1425 49.9 - - - - - - - - - - - 29.5 0604 12.8
1/15/24 60.1 1305 34.2 0530 0.00 0.17 4.07 0.073 0.70 287 11.2 1304 NNE | 13 53.1 29.5 71 32 30.19 2355 29.97 1343 50.4 - - - - - - - - - - - 29.1 0529 12.8
1/14/24 64.8 0939 43.2 2338 0.01 0.17 4.07 0.165 0.72 333 44.9 1156 W | 281 280.8 28.5 61 25 30.07 2338 29.74 1257 49.6 - - 1156 0.01 1157 0.01 1211 0.01 1256 - - 43.2 2338 12.9
1/13/24 66.0 1507 36.8 0403 0.00 0.16 4.06 0.106 0.65 314 28.5 1734 WNW | 283 134.4 24.4 48 26 30.11 0708 29.82 1516 47.0 - - - - - - - - - - - 31.5 0710 12.8
1/12/24 58.4 1555 23.3 0533 0.00 0.16 4.06 0.081 0.63 328 25.0 2141 NW | 317 81.1 13.9 76 13 30.31 0544 29.95 1556 46.2 - - - - - - - - - - - 17.0 0531 12.8
1/11/24 50.4 0322 30.6 2319 0.07 0.16 4.06 0.094 0.63 304 59.2 0453 W | 276 281.3 18.5 80 18 30.22 2317 29.57 0359 47.1 - 7.09 0325 0.01 0405 0.02 0412 0.06 0457 - - 25.2 2325 12.9
1/10/24 59.0 1343 39.6 0706 0.00 0.09 3.99 0.113 0.62 315 32.0 1524 W | 281 248.3 28.8 72 28 29.98 0705 29.71 1455 46.1 - - - - - - - - - - - 32.9 0723 12.8
1/9/24 59.6 1627 25.5 0714 0.00 0.09 3.99 0.075 0.57 315 21.0 2127 NW | 312 74.0 16.4 61 20 30.42 0015 29.88 1814 44.7 - - - - - - - - - - - 20.6 0717 12.8
1/8/24 45.8 1452 28.4 0523 0.00 0.09 3.99 0.084 0.56 318 20.6 0942 WNW | 286 144.0 10.8 60 22 30.42 2310 30.10 0146 45.4 - - - - - - - - - - - 18.5 0523 12.8
1/7/24 49.4 0010 33.7 2252 0.04 0.09 3.99 0.098 0.53 313 41.2 0211 WNW | 302 346.3 21.5 89 24 30.12 2333 29.68 0008 47.1 - 0.14 0251 - 0306 0.03 0252 0.04 0334 - - 23.6 2305 12.8
1/6/24 55.8 1600 26.7 0640 0.00 0.04 3.94 0.091 0.48 298 34.6 2306 SW | 225 139.7 17.4 63 16 30.33 0623 29.70 2306 46.6 - - - - - - - - - - - 20.4 0657 12.8
1/5/24 56.1 1450 31.5 0414 0.00 0.04 3.94 0.075 0.46 233 16.0 2244 WSW | 246 106.9 23.2 77 25 30.26 0831 30.01 1418 47.1 - - - - - - - - - - - 28.1 0351 12.8
1/4/24 52.0 1331 36.6 2343 0.00 0.04 3.94 0.092 0.44 307 29.8 0431 W | 266 248.3 27.3 73 34 30.24 2358 30.00 0050 47.5 - - - - - - - - - - - 29.4 0608 12.8
1/3/24 52.2 1414 36.2 0308 0.04 0.04 3.94 0.062 0.42 221 30.7 2024 W | 267 229.0 31.4 90 39 30.19 0001 29.85 1409 48.2 - 0.18 0941 - 0952 0.03 0953 0.04 1012 - - 29.5 0913 12.8
1/2/24 60.0 1527 30.8 0427 0.00 0.00 3.90 0.065 0.42 303 6.8 0504 S | 185 48.4 29.5 88 29 30.32 0712 30.08 1527 48.1 - - - - - - - - - - - 26.0 0339 12.8
1/1/24 53.5 1448 32.6 0714 0.00 0.00 3.90 0.052 0.41 257 5.9 1256 NNE | 22 46.9 32.4 90 44 30.24 2346 30.05 1508 48.6 - - - - - - - - - - - 28.8 0657 12.8
12/31/23 54.3 1405 35.3 0726 0.00 0.95 3.90 0.051 0.42 209 16.7 1926 ESE | 106 86.9 32.8 81 43 30.19 0724 30.04 1458 48.9 - - - - - - - - - - - 32.4 0659 12.8
12/30/23 53.6 1537 33.0 0612 0.00 0.95 3.90 0.065 0.43 214 25.4 1652 W | 267 136.7 33.5 81 40 30.13 0715 29.93 1539 49.4 - - - - - - - - - - - 27.7 0612 12.8
12/29/23 57.7 1445 35.0 0528 0.00 0.95 3.90 0.054 0.45 213 8.1 1512 E | 83 51.0 32.4 87 36 30.28 0632 30.05 1459 50.0 - - - - - - - - - - - 32.5 0634 12.8
12/28/23 62.0 1501 34.8 0713 0.00 0.95 3.90 0.072 0.43 298 8.3 1315 N | 351 55.9 32.9 85 24 30.30 0712 30.08 1435 50.2 - - - - - - - - - - - 31.7 0714 12.8
12/27/23 60.7 1457 37.2 0453 0.00 0.95 3.90 0.063 0.44 253 11.6 1501 ENE | 71 57.3 34.9 89 31 30.26 0822 30.05 1457 50.0 - - - - - - - - - - - 34.7 0456 12.8
12/26/23 60.9 1451 36.7 0651 0.00 0.95 3.90 0.056 0.46 259 6.1 0358 SW | 230 42.1 34.2 81 28 30.27 0651 30.05 1458 49.7 - - - - - - - - - - - 33.7 0703 12.8
12/25/23 58.7 1531 32.1 0553 0.00 0.95 3.90 0.063 0.45 276 10.3 1240 N | 350 64.3 33.3 91 31 30.31 0449 30.07 1421 50.1 - - - - - - - - - - - 28.8 0602 12.8
12/24/23 56.4 1351 34.7 0658 0.00 0.95 3.90 0.061 0.44 296 5.7 1214 ENE | 66 39.7 36.1 94 44 30.28 2358 30.07 1519 51.2 - - - - - - - - - - - 31.1 0603 12.8
12/23/23 60.0 1353 42.6 2346 0.00 0.95 3.90 0.078 0.45 292 22.6 1038 NW | 310 133.9 39.8 88 44 30.10 2345 29.89 1337 52.6 - - - - - - - - - - - 38.0 0331 12.8
12/22/23 55.1 0030 42.6 2352 0.95 0.95 3.90 0.032 0.44 125 15.6 0111 ESE | 113 87.0 45.0 96 66 29.99 2306 29.85 1510 54.1 0.95 2.84 0307 0.04 0309 0.26 0312 0.40 0346 - - 39.7 2056 12.8
12/21/23 62.9 1359 41.4 0605 0.00 0.00 2.95 0.089 0.49 273 21.5 1100 ESE | 114 165.2 42.3 92 40 30.07 0656 29.90 1453 53.4 - - - - - - - - - - - 36.8 0604 12.8
12/20/23 64.1 1420 35.6 0700 0.00 0.00 2.95 0.082 0.47 280 31.4 1742 SSE | 158 128.1 39.8 94 44 29.99 0712 29.74 1425 52.2 - - - - - - - - - - - 32.3 0719 12.8
12/19/23 61.6 1504 39.7 0725 0.00 0.00 2.95 0.046 0.48 151 6.1 0539 SSE | 151 50.8 31.6 75 29 29.99 0723 29.75 1502 52.0 - - - - - - - - - - - 36.3 0641 12.8
12/18/23 64.2 1528 41.8 0134 0.00 0.00 2.95 0.058 0.52 206 8.8 1145 NW | 320 52.9 16.2 34 16 30.09 0134 29.85 1419 51.4 - - - - - - - - - - - 39.8 0615 12.8
12/17/23 66.0 1449 33.0 0437 0.00 0.00 2.95 0.068 0.52 272 5.9 1159 NNW | 336 44.9 16.1 47 15 30.28 0156 29.97 1438 50.6 - - - - - - - - - - - 29.3 0438 12.8
12/16/23 64.1 1504 31.6 0736 0.00 0.00 2.95 0.066 0.52 284 7.2 0633 WNW | 284 53.2 18.4 54 18 30.33 0736 30.03 1504 50.5 - - - - - - - - - - - 27.5 0435 12.8
12/15/23 64.1 1433 28.7 0643 0.00 0.00 2.95 0.083 0.52 299 14.7 1335 ENE | 61 69.1 19.4 58 19 30.43 0643 30.10 1520 50.5 - - - - - - - - - - - 25.4 0641 12.8
12/14/23 60.1 1421 27.9 0613 0.00 0.00 2.95 0.071 0.52 296 9.4 1354 ESE | 107 56.5 20.1 67 22 30.36 0656 30.13 1439 50.8 - - - - - - - - - - - 24.6 0639 12.8
12/13/23 58.0 1322 32.7 0247 0.00 0.00 2.95 0.086 0.56 296 20.0 1221 WNW | 303 103.0 20.7 56 27 30.25 2329 29.99 1433 51.3 - - - - - - - - - - - 28.8 0255 12.8
12/12/23 63.6 1349 32.4 0457 0.00 0.00 2.95 0.084 0.56 295 10.7 1108 NW | 318 68.2 11.8 38 13 30.07 2347 29.77 1349 51.3 - - - - - - - - - - - 30.1 0358 12.8
12/11/23 63.5 1444 33.0 0320 0.00 0.00 2.95 0.060 0.55 254 6.1 1143 WNW | 303 45.5 5.1 28 10 30.21 0030 29.84 1514 51.2 - - - - - - - - - - - 30.6 0500 12.8
12/10/23 57.8 1521 25.4 0641 0.00 0.00 2.95 0.065 0.55 299 6.4 2101 S | 182 43.2 2.7 34 10 30.54 0655 30.14 1535 51.6 - - - - - - - - - - - 21.1 0634 12.8
12/9/23 51.3 1540 28.4 0612 0.00 0.00 2.95 0.069 0.57 302 12.3 1402 NE | 34 64.9 9.8 58 15 30.51 2233 30.26 0212 53.1 - - - - - - - - - - - 23.7 0609 12.8
12/8/23 57.6 1339 33.3 2359 0.00 0.00 2.95 0.084 0.58 302 32.2 0036 WSW | 258 113.5 22.5 56 27 30.31 2359 29.98 0041 54.1 - - - - - - - - - - - 29.5 2309 12.8
12/7/23 62.2 1241 42.1 0018 0.00 0.00 2.95 0.118 0.59 303 36.0 1816 WNW | 302 243.4 31.2 70 30 30.07 0016 29.87 1423 54.4 - - - - - - - - - - - 37.5 0123 12.8
12/6/23 69.6 1348 35.8 0623 0.00 0.00 2.95 0.078 0.55 300 11.0 1717 SW | 230 55.9 27.6 66 22 30.25 0203 29.90 1510 54.0 - - - - - - - - - - - 32.2 0624 12.8
12/5/23 67.5 1324 36.8 0648 0.00 0.00 2.95 0.078 0.56 300 7.9 1810 SSE | 155 53.8 28.6 66 25 30.33 0656 30.08 1438 53.5 - - - - - - - - - - - 34.8 0549 12.8
12/4/23 66.0 1438 37.2 0433 0.00 0.00 2.95 0.063 0.56 244 7.2 1817 SE | 146 48.2 27.8 64 25 30.31 2327 30.07 1456 53.1 - - - - - - - - - - - 33.2 0501 12.8
12/3/23 64.4 1457 31.6 0311 0.00 0.00 2.95 0.084 0.58 294 16.7 1230 NW | 315 81.2 26.4 75 23 30.31 0648 30.08 1510 52.8 - - - - - - - - - - - 28.2 0317 12.8
12/2/23 59.8 1451 35.4 0121 0.00 0.00 2.95 0.073 0.56 311 19.5 0448 W | 262 76.2 27.1 68 29 30.26 2334 30.05 1432 52.8 - - - - - - - - - - - 30.5 0635 12.8
12/1/23 55.8 1430 39.4 2341 0.00 0.00 2.95 0.097 0.56 308 26.7 0840 W | 280 179.2 29.3 68 35 30.16 2342 29.92 1358 53.2 - - - - - - - - - - - 35.7 0659 12.8
11/30/23 58.9 1345 40.6 0652 0.00 0.12 2.95 0.080 0.55 237 27.4 1311 WNW | 293 177.8 35.2 78 36 29.94 0647 29.73 1320 53.3 - - - - - - - - - - - 37.0 0405 12.8
11/29/23 59.6 1330 29.7 0620 0.00 0.12 2.95 0.084 0.58 301 19.3 1419 NW | 325 93.0 28.5 74 33 30.14 0004 29.80 1409 53.4 - - - - - - - - - - - 27.0 0622 12.8
11/28/23 60.3 1340 32.1 0522 0.00 0.12 2.95 0.082 0.58 317 13.2 1211 ENE | 62 67.0 20.4 58 23 30.31 0714 30.02 1450 53.6 - - - - - - - - - - - 28.6 0529 12.8
11/27/23 55.1 1420 31.3 0427 0.00 0.12 2.95 0.077 0.59 311 10.3 0649 S | 172 63.0 17.6 57 21 30.28 2245 30.09 1420 53.6 - - - - - - - - - - - 28.5 0613 12.8
11/26/23 51.8 1414 27.2 0634 0.00 0.12 2.95 0.068 0.63 282 11.8 1348 ENE | 64 67.4 18.5 63 27 30.33 0638 30.08 1411 54.5 - - - - - - - - - - - 24.4 0656 12.8
11/25/23 52.4 1255 29.4 0459 0.00 0.12 2.95 0.077 0.73 331 14.0 1053 NNE | 29 71.2 19.1 64 27 30.27 2331 30.05 1355 56.2 - - - - - - - - - - - 24.5 0627 12.8
11/24/23 58.2 1436 36.6 2358 0.00 0.12 2.95 0.086 0.74 328 15.3 0935 W | 265 102.7 30.2 79 29 30.08 2358 29.77 0001 57.3 - - - - - - - - - - - 34.4 2031 12.8
11/23/23 72.1 1345 36.2 0641 0.00 0.12 2.95 0.112 0.74 293 29.6 1447 W | 276 113.0 24.8 56 14 30.01 0001 29.54 1404 57.0 - - - - - - - - - - - 32.6 0657 12.8
11/22/23 64.4 1418 30.9 0544 0.00 0.12 2.95 0.079 0.70 337 6.6 1727 S | 173 45.2 22.6 66 21 30.41 0121 29.99 1550 57.1 - - - - - - - - - - - 27.6 0600 12.8
11/21/23 62.7 1416 36.6 0449 0.00 0.12 2.95 0.094 0.68 342 12.9 1452 E | 83 77.6 21.8 53 22 30.53 0640 30.28 1452 57.8 - - - - - - - - - - - 32.6 0447 12.8
11/20/23 57.8 1339 42.8 0157 0.00 0.12 2.95 0.112 0.69 345 20.0 0344 W | 270 136.2 15.9 48 18 30.45 2251 30.19 0032 59.0 - - - - - - - - - - - 37.1 0157 12.8
11/19/23 63.7 1300 43.2 2356 0.00 0.12 2.95 0.177 0.68 346 42.3 0905 WNW | 300 341.1 30.5 80 20 30.23 2350 29.87 1441 59.8 - - - - - - - - - - - 38.2 2358 12.9
11/18/23 66.2 1502 42.1 0539 0.00 0.12 2.95 0.082 0.64 319 10.1 1143 E | 90 66.4 42.3 95 38 30.04 0713 29.87 1501 59.4 - - - - - - - - - - - 39.0 0612 12.8
11/17/23 65.6 1425 40.8 0404 0.00 0.12 2.95 0.089 0.65 334 23.9 1202 ESE | 108 99.9 45.0 97 48 30.12 0735 29.85 1506 59.4 - - 0650 - 0651 - 0705 - 0750 - - 38.6 0601 12.8
11/16/23 63.4 1341 42.3 0721 0.00 0.11 2.94 0.072 0.65 279 13.2 1408 ENE | 62 68.5 47.6 98 58 30.08 2359 29.90 1342 59.5 - - - - - - - - - - - 41.0 0737 12.8
11/15/23 64.8 1457 40.1 0544 0.11 0.11 2.94 0.061 0.68 152 23.0 1457 SE | 130 76.9 29.2 95 22 30.07 0600 29.81 1602 60.0 0.11 0.24 1735 - 1927 0.04 1745 0.09 1830 - - 37.3 0421 12.8
11/14/23 71.0 1420 36.1 0639 0.00 0.00 2.83 0.100 0.74 357 10.3 1556 E | 82 59.2 22.4 56 16 30.17 0639 29.88 1543 60.2 - - - - - - - - - - - 33.9 0451 12.8
11/13/23 71.2 1448 35.8 0508 0.00 0.00 2.83 0.099 0.78 338 13.8 1457 W | 262 63.6 21.6 44 18 30.15 0508 29.85 1505 59.8 - - - - - - - - - - - 32.1 0506 12.8
11/12/23 71.1 1411 33.2 0443 0.00 0.00 2.83 0.139 0.84 366 23.0 1131 ENE | 78 112.7 10.2 31 10 30.25 0644 29.92 1503 59.8 - - - - - - - - - - - 31.1 0537 12.8
11/11/23 70.1 1417 30.6 0607 0.00 0.00 2.83 0.094 0.81 374 7.0 1229 NW | 326 42.8 5.1 29 8 30.28 0607 30.00 1417 60.3 - - - - - - - - - - - 25.4 0606 12.8
11/10/23 65.6 1450 28.2 0612 0.00 0.00 2.83 0.085 0.83 343 6.6 1914 SSW | 195 46.5 5.8 33 10 30.25 0613 29.95 1446 61.5 - - - - - - - - - - - 23.7 0622 12.8
11/9/23 61.5 1436 36.9 2359 0.00 0.00 2.83 0.109 0.85 380 12.7 1217 N | 354 81.5 12.9 38 14 30.28 0615 30.04 1525 63.0 - - - - - - - - - - - 32.7 2322 12.9
11/8/23 62.2 1342 42.0 0603 0.00 0.00 2.83 0.123 0.87 376 16.9 1218 NNW | 346 128.0 22.7 60 17 30.19 0620 30.03 1445 64.3 - - - - - - - - - - - 38.0 0617 12.9
11/7/23 64.9 1238 47.4 2228 0.00 0.00 2.83 0.136 0.88 370 27.6 1042 WNW | 282 235.6 38.7 71 39 30.07 2228 29.81 1408 65.6 - - - - - - - - - - - 42.1 2254 12.8
11/6/23 81.5 1507 47.0 0351 0.00 0.00 2.83 0.156 0.86 383 22.1 1624 W | 276 103.5 26.1 49 10 29.96 0613 29.69 1522 65.2 - - - - - - - - - 80.0 - 44.4 0351 12.8
11/5/23 83.9 1501 41.8 0614 0.00 0.00 2.83 0.114 0.83 383 8.1 1128 N | 350 54.3 20.8 35 10 30.11 0614 29.74 1603 64.3 - - - - - - - - - 81.1 1501 39.0 0620 12.8
11/4/23 78.9 1543 38.3 0622 0.00 0.00 2.83 0.113 0.85 389 7.5 1501 ESE | 121 49.4 10.4 28 8 30.22 0639 29.89 1655 63.9 - - - - - - - - - - - 34.5 0646 12.8
11/3/23 78.0 1620 36.7 0733 0.00 0.00 2.83 0.109 0.94 402 13.2 1547 E | 80 47.4 9.0 28 8 30.25 0732 29.92 1547 63.7 - - - - - - - - - - - 33.5 0654 12.8
11/2/23 76.0 1503 35.3 0603 0.00 0.00 2.83 0.122 0.95 405 12.5 1515 E | 85 63.6 8.3 28 8 30.25 0708 29.96 1515 63.6 - - - - - - - - - - - 32.1 0604 12.8
11/1/23 72.4 1444 33.5 0546 0.00 0.00 2.83 0.139 0.96 409 17.5 1447 ENE | 66 84.8 6.3 25 8 30.28 0735 29.94 1525 64.0 - - - - - - - - - - - 32.1 0729 12.8
10/31/23 69.1 1348 33.7 0656 0.00 0.01 2.83 0.115 0.98 418 9.2 1146 ENE | 76 54.1 2.1 22 7 30.34 0655 30.03 1626 64.6 - - - - - - - - - - - 29.5 0658 12.8
10/30/23 63.3 1614 34.4 0614 0.00 0.01 2.83 0.117 0.99 423 18.8 1320 NNW | 339 71.4 5.7 28 11 30.36 0716 30.09 1614 65.8 - - - - - - - - - - - 30.7 0723 12.8
10/29/23 59.0 1536 39.0 2348 0.00 0.01 2.83 0.135 1.04 421 17.5 1249 NNW | 336 118.7 7.3 34 10 30.33 2347 30.07 0112 67.8 - - - - - - - - - - - 35.6 0706 12.8
10/28/23 69.7 1431 48.9 2239 0.00 0.01 2.83 0.203 1.08 424 34.2 1117 NW | 313 222.5 18.3 52 10 30.08 0059 29.78 1436 69.6 - - - - - - - - - - - 44.7 0633 12.9
10/27/23 71.5 1625 41.0 0622 0.00 0.01 2.83 0.124 1.07 400 23.2 0002 NW | 306 89.0 37.9 88 24 30.06 0629 29.79 1703 70.4 - - - - - - - - - - - 38.6 0630 12.9
10/26/23 72.8 1448 47.6 0053 0.00 0.01 2.83 0.134 1.10 348 25.0 0658 W | 280 182.1 41.6 79 27 30.02 0053 29.80 1615 71.8 - - - - - - - - - - - 46.7 0053 12.9
10/25/23 78.1 1435 45.7 0702 0.00 0.01 2.83 0.153 1.14 419 22.8 1503 NW | 320 104.6 35.3 66 21 29.94 0725 29.73 1435 72.4 - - - - - - - - - - - 44.6 0602 12.9
10/24/23 76.8 1515 48.8 0617 0.00 0.01 2.83 0.127 1.15 425 12.5 0235 WNW | 286 59.7 34.6 68 17 29.89 2354 29.66 1712 73.0 - - - - - - - - - - - 48.0 0617 12.9
10/23/23 73.4 1453 54.6 0513 0.00 0.01 2.83 0.167 1.18 421 20.8 1017 NW | 314 193.5 42.1 67 30 29.74 0003 29.56 1453 74.1 - - - - - - - - - - - - - 12.8
10/22/23 83.6 1504 53.1 0603 0.00 0.01 2.83 0.183 1.16 442 26.3 1617 NW | 309 143.6 34.4 67 12 29.80 0603 29.49 1617 75.0 - - - - - - - - - 80.8 1504 - - 12.8
10/21/23 89.6 1444 57.1 0712 0.00 0.01 2.83 0.184 1.14 433 17.8 1612 NNW | 339 95.4 36.5 46 14 29.88 0710 29.59 1443 75.1 - - - - - - - - - 85.7 1444 - - 12.9
10/20/23 92.2 1439 55.0 0647 0.00 0.01 2.83 0.157 1.10 422 15.3 1424 WSW | 243 67.7 32.8 37 12 30.00 0647 29.68 1617 74.7 - - - - - - - - - 87.8 1439 - - 12.8
10/19/23 91.7 1412 53.5 0557 0.00 0.01 2.83 0.170 1.09 446 15.1 1424 E | 96 73.2 30.5 40 11 30.05 0655 29.78 1625 74.3 - - - - - - - - - 87.4 1412 - - 12.8
10/18/23 89.7 1410 50.8 0651 0.00 0.01 2.83 0.163 1.06 451 15.6 1457 E | 86 66.8 30.6 41 12 30.03 0651 29.78 1604 73.9 - - - - - - - - - 85.7 1410 - - 12.8
10/17/23 89.0 1447 50.8 0635 0.00 0.01 2.83 0.155 1.13 457 11.8 1411 NNE | 23 63.4 28.6 38 11 30.01 0635 29.71 1629 73.5 - - - - - - - - - 85.1 1447 - - 12.8
10/16/23 88.5 1552 48.9 0627 0.00 0.01 2.83 0.150 1.18 466 9.0 1649 W | 273 53.9 25.8 36 10 30.14 0627 29.79 1652 72.9